Terminal Aerodrome Forecast
Issued by NWS Tampa Bay Area, FL

Home | Current Version | Previous Version | Text Only | Print | Product List | Glossary On
Versions: 1 2 3 4 5 6 7 8 9 10 11 12 13 14 15 16 17 18 19 20 21 22 23 24 25
000
FTUS42 KTBW 290200 AAA
TAFTPA
TAF AMD
KTPA 290230Z 2902/2924 25010KT P6SM VCSH SCT020 BKN250
     FM291200 26011KT P6SM VCTS SCT020CB BKN035
     FM292200 26013KT P6SM SCT035 BKN250=

USA.gov is the U.S. government's official web portal to all federal, state and local government web resources and services.